sensor_id;sensor_type;location;lat;lon;timestamp;pressure;altitude;pressure_sealevel;temperature;humidity
36788;BME280;22738;45.560;9.434;2023-07-31T00:01:20;99547.09;;;24.18;100.00
36788;BME280;22738;45.560;9.434;2023-07-31T00:08:01;99548.44;;;24.07;100.00
36788;BME280;22738;45.560;9.434;2023-07-31T00:14:42;99560.38;;;24.03;100.00
36788;BME280;22738;45.560;9.434;2023-07-31T00:21:25;99556.03;;;24.17;100.00
36788;BME280;22738;45.560;9.434;2023-07-31T00:28:06;99563.91;;;24.32;100.00
36788;BME280;22738;45.560;9.434;2023-07-31T00:34:47;99564.78;;;24.39;100.00
36788;BME280;22738;45.560;9.434;2023-07-31T00:41:28;99563.25;;;24.51;100.00
36788;BME280;22738;45.560;9.434;2023-07-31T00:48:09;99572.19;;;24.50;100.00
36788;BME280;22738;45.560;9.434;2023-07-31T00:54:50;99572.19;;;24.50;100.00
36788;BME280;22738;45.560;9.434;2023-07-31T01:01:31;99565.09;;;24.57;100.00
36788;BME280;22738;45.560;9.434;2023-07-31T01:08:20;99567.50;;;24.52;100.00
36788;BME280;22738;45.560;9.434;2023-07-31T01:15:09;99557.81;;;24.38;100.00
36788;BME280;22738;45.560;9.434;2023-07-31T01:28:58;99544.72;;;24.30;100.00
36788;BME280;22738;45.560;9.434;2023-07-31T01:35:44;99552.75;;;24.15;100.00
36788;BME280;22738;45.560;9.434;2023-07-31T01:42:26;99558.41;;;24.05;100.00
36788;BME280;22738;45.560;9.434;2023-07-31T01:49:07;99557.50;;;23.98;100.00
36788;BME280;22738;45.560;9.434;2023-07-31T01:55:48;99552.56;;;23.95;100.00
36788;BME280;22738;45.560;9.434;2023-07-31T02:02:29;99548.34;;;24.01;100.00
36788;BME280;22738;45.560;9.434;2023-07-31T02:09:13;99552.56;;;23.95;100.00
36788;BME280;22738;45.560;9.434;2023-07-31T02:15:56;99539.06;;;23.90;100.00
36788;BME280;22738;45.560;9.434;2023-07-31T02:22:38;99546.38;;;23.88;100.00
36788;BME280;22738;45.560;9.434;2023-07-31T02:29:19;99550.53;;;23.97;100.00
36788;BME280;22738;45.560;9.434;2023-07-31T02:36:00;99548.16;;;24.02;100.00
36788;BME280;22738;45.560;9.434;2023-07-31T02:42:41;99545.25;;;23.97;100.00
36788;BME280;22738;45.560;9.434;2023-07-31T02:49:22;99540.72;;;23.91;100.00
36788;BME280;22738;45.560;9.434;2023-07-31T02:56:03;99545.75;;;23.86;100.00
36788;BME280;22738;45.560;9.434;2023-07-31T03:02:44;99541.03;;;23.82;100.00
36788;BME280;22738;45.560;9.434;2023-07-31T03:09:25;99543.81;;;23.74;100.00
36788;BME280;22738;45.560;9.434;2023-07-31T03:16:06;99548.97;;;23.61;100.00
36788;BME280;22738;45.560;9.434;2023-07-31T03:22:47;99544.22;;;23.56;100.00
36788;BME280;22738;45.560;9.434;2023-07-31T03:29:29;99538.44;;;23.46;100.00
36788;BME280;22738;45.560;9.434;2023-07-31T03:36:10;99545.28;;;23.40;100.00
36788;BME280;22738;45.560;9.434;2023-07-31T03:42:51;99547.88;;;23.34;100.00
36788;BME280;22738;45.560;9.434;2023-07-31T03:49:32;99544.28;;;23.27;100.00
36788;BME280;22738;45.560;9.434;2023-07-31T03:56:13;99546.31;;;23.25;100.00
36788;BME280;22738;45.560;9.434;2023-07-31T04:02:54;99546.03;;;23.20;100.00
36788;BME280;22738;45.560;9.434;2023-07-31T04:09:35;99546.03;;;23.20;100.00
36788;BME280;22738;45.560;9.434;2023-07-31T04:16:16;99552.34;;;23.19;100.00
36788;BME280;22738;45.560;9.434;2023-07-31T04:22:58;99548.94;;;23.25;100.00
36788;BME280;22738;45.560;9.434;2023-07-31T04:29:39;99543.84;;;23.38;100.00
36788;BME280;22738;45.560;9.434;2023-07-31T04:36:23;99548.84;;;23.69;100.00
36788;BME280;22738;45.560;9.434;2023-07-31T04:43:04;99547.28;;;23.95;100.00
36788;BME280;22738;45.560;9.434;2023-07-31T04:49:45;99561.69;;;24.07;100.00
36788;BME280;22738;45.560;9.434;2023-07-31T04:56:26;99574.78;;;24.43;100.00
36788;BME280;22738;45.560;9.434;2023-07-31T05:03:07;99583.44;;;24.79;100.00
36788;BME280;22738;45.560;9.434;2023-07-31T05:09:48;99594.41;;;25.11;100.00
36788;BME280;22738;45.560;9.434;2023-07-31T05:16:29;99605.13;;;25.30;100.00
36788;BME280;22738;45.560;9.434;2023-07-31T05:23:10;99608.72;;;25.51;100.00
36788;BME280;22738;45.560;9.434;2023-07-31T05:29:51;99617.31;;;25.66;100.00
36788;BME280;22738;45.560;9.434;2023-07-31T05:36:32;99618.91;;;25.54;100.00
36788;BME280;22738;45.560;9.434;2023-07-31T05:43:13;99620.50;;;25.41;100.00
36788;BME280;22738;45.560;9.434;2023-07-31T05:49:55;99619.84;;;25.93;100.00
36788;BME280;22738;45.560;9.434;2023-07-31T05:56:36;99615.84;;;26.30;100.00
36788;BME280;22738;45.560;9.434;2023-07-31T06:03:17;99608.06;;;26.61;100.00
36788;BME280;22738;45.560;9.434;2023-07-31T06:09:59;99618.63;;;27.14;100.00
36788;BME280;22738;45.560;9.434;2023-07-31T06:16:46;99624.84;;;26.55;100.00
36788;BME280;22738;45.560;9.434;2023-07-31T06:23:27;99629.31;;;26.29;100.00
36788;BME280;22738;45.560;9.434;2023-07-31T06:30:08;99635.47;;;26.29;100.00
36788;BME280;22738;45.560;9.434;2023-07-31T06:36:51;99642.81;;;26.53;100.00
36788;BME280;22738;45.560;9.434;2023-07-31T06:43:32;99645.72;;;26.84;100.00
36788;BME280;22738;45.560;9.434;2023-07-31T06:50:13;99644.03;;;26.97;100.00
36788;BME280;22738;45.560;9.434;2023-07-31T06:56:54;99646.59;;;27.36;100.00
36788;BME280;22738;45.560;9.434;2023-07-31T07:03:35;99645.00;;;27.79;100.00
36788;BME280;22738;45.560;9.434;2023-07-31T07:10:18;99649.16;;;28.69;100.00
36788;BME280;22738;45.560;9.434;2023-07-31T07:16:59;99649.03;;;29.91;100.00
36788;BME280;22738;45.560;9.434;2023-07-31T07:23:40;99640.75;;;30.98;100.00
36788;BME280;22738;45.560;9.434;2023-07-31T07:30:22;99635.50;;;30.57;100.00
36788;BME280;22738;45.560;9.434;2023-07-31T07:37:05;99649.25;;;30.19;100.00
36788;BME280;22738;45.560;9.434;2023-07-31T07:43:46;99659.13;;;31.18;100.00
36788;BME280;22738;45.560;9.434;2023-07-31T07:50:28;99642.03;;;30.31;100.00
36788;BME280;22738;45.560;9.434;2023-07-31T07:57:09;99660.38;;;33.01;100.00
36788;BME280;22738;45.560;9.434;2023-07-31T08:03:52;99660.84;;;33.80;100.00
36788;BME280;22738;45.560;9.434;2023-07-31T08:10:33;99658.44;;;33.56;100.00
36788;BME280;22738;45.560;9.434;2023-07-31T08:17:14;99662.94;;;33.72;100.00
36788;BME280;22738;45.560;9.434;2023-07-31T08:23:55;99667.19;;;33.68;100.00
36788;BME280;22738;45.560;9.434;2023-07-31T08:30:36;99660.63;;;33.59;100.00
36788;BME280;22738;45.560;9.434;2023-07-31T08:37:17;99650.66;;;33.38;100.00
36788;BME280;22738;45.560;9.434;2023-07-31T08:43:59;99645.97;;;34.52;100.00
36788;BME280;22738;45.560;9.434;2023-07-31T08:50:41;99631.78;;;33.33;100.00
36788;BME280;22738;45.560;9.434;2023-07-31T08:57:23;99633.94;;;34.33;100.00
36788;BME280;22738;45.560;9.434;2023-07-31T09:04:05;99628.31;;;34.03;100.00
36788;BME280;22738;45.560;9.434;2023-07-31T09:10:47;99630.47;;;32.97;100.00
36788;BME280;22738;45.560;9.434;2023-07-31T09:17:32;99638.19;;;33.11;100.00
36788;BME280;22738;45.560;9.434;2023-07-31T09:24:28;99635.13;;;33.02;100.00
36788;BME280;22738;45.560;9.434;2023-07-31T09:31:09;99635.09;;;33.19;100.00
36788;BME280;22738;45.560;9.434;2023-07-31T09:37:55;99648.75;;;33.17;100.00
36788;BME280;22738;45.560;9.434;2023-07-31T09:44:41;99639.50;;;33.08;100.00
36788;BME280;22738;45.560;9.434;2023-07-31T09:51:27;99638.66;;;33.67;100.00
36788;BME280;22738;45.560;9.434;2023-07-31T09:58:10;99639.59;;;33.13;100.00
36788;BME280;22738;45.560;9.434;2023-07-31T10:04:54;99613.84;;;32.29;100.00
36788;BME280;22738;45.560;9.434;2023-07-31T10:11:42;99620.50;;;32.43;100.00
36788;BME280;22738;45.560;9.434;2023-07-31T10:18:25;99628.47;;;32.71;100.00
36788;BME280;22738;45.560;9.434;2023-07-31T10:25:08;99615.91;;;33.53;100.00
36788;BME280;22738;45.560;9.434;2023-07-31T10:31:50;99610.44;;;33.70;100.00
36788;BME280;22738;45.560;9.434;2023-07-31T10:38:32;99590.50;;;33.44;100.00
36788;BME280;22738;45.560;9.434;2023-07-31T10:45:13;99591.91;;;32.32;100.00
36788;BME280;22738;45.560;9.434;2023-07-31T10:51:55;99598.84;;;32.83;100.00
36788;BME280;22738;45.560;9.434;2023-07-31T10:58:37;99591.63;;;32.67;100.00
36788;BME280;22738;45.560;9.434;2023-07-31T11:05:19;99581.00;;;32.22;100.00
36788;BME280;22738;45.560;9.434;2023-07-31T11:12:03;99585.97;;;31.85;100.00
36788;BME280;22738;45.560;9.434;2023-07-31T11:18:46;99579.78;;;32.29;100.00
36788;BME280;22738;45.560;9.434;2023-07-31T11:25:29;99567.59;;;31.49;100.00
36788;BME280;22738;45.560;9.434;2023-07-31T11:32:16;99557.81;;;31.54;100.00
36788;BME280;22738;45.560;9.434;2023-07-31T11:39:07;99556.84;;;32.38;100.00
36788;BME280;22738;45.560;9.434;2023-07-31T11:45:51;99543.97;;;32.40;100.00
36788;BME280;22738;45.560;9.434;2023-07-31T11:52:40;99539.72;;;31.22;100.00
36788;BME280;22738;45.560;9.434;2023-07-31T11:59:23;99533.72;;;31.43;100.00
36788;BME280;22738;45.560;9.434;2023-07-31T12:06:05;99520.56;;;31.01;100.00
36788;BME280;22738;45.560;9.434;2023-07-31T12:13:05;99511.44;;;31.87;100.00
36788;BME280;22738;45.560;9.434;2023-07-31T12:19:48;99501.75;;;31.98;100.00
36788;BME280;22738;45.560;9.434;2023-07-31T12:26:35;99492.75;;;31.31;100.00
36788;BME280;22738;45.560;9.434;2023-07-31T12:33:18;99489.31;;;31.47;100.00
36788;BME280;22738;45.560;9.434;2023-07-31T12:39:59;99477.97;;;31.56;100.00
36788;BME280;22738;45.560;9.434;2023-07-31T12:46:44;99461.31;;;31.54;100.00
36788;BME280;22738;45.560;9.434;2023-07-31T12:53:25;99446.19;;;31.65;100.00
36788;BME280;22738;45.560;9.434;2023-07-31T13:00:07;99441.31;;;31.79;100.00
36788;BME280;22738;45.560;9.434;2023-07-31T13:06:48;99429.81;;;31.61;100.00
36788;BME280;22738;45.560;9.434;2023-07-31T13:13:29;99422.84;;;30.36;100.00
36788;BME280;22738;45.560;9.434;2023-07-31T13:20:11;99427.56;;;30.97;100.00
36788;BME280;22738;45.560;9.434;2023-07-31T13:26:53;99416.59;;;31.27;100.00
36788;BME280;22738;45.560;9.434;2023-07-31T13:33:34;99426.84;;;31.01;100.00
36788;BME280;22738;45.560;9.434;2023-07-31T13:40:15;99415.97;;;31.36;100.00
36788;BME280;22738;45.560;9.434;2023-07-31T13:46:56;99413.44;;;30.73;100.00
36788;BME280;22738;45.560;9.434;2023-07-31T13:53:37;99410.34;;;31.38;100.00
36788;BME280;22738;45.560;9.434;2023-07-31T14:00:20;99397.59;;;31.12;100.00
36788;BME280;22738;45.560;9.434;2023-07-31T14:07:01;99398.13;;;31.42;100.00
36788;BME280;22738;45.560;9.434;2023-07-31T14:13:42;99379.81;;;31.39;100.00
36788;BME280;22738;45.560;9.434;2023-07-31T14:20:23;99381.94;;;31.37;100.00
36788;BME280;22738;45.560;9.434;2023-07-31T14:27:04;99380.66;;;31.39;100.00
36788;BME280;22738;45.560;9.434;2023-07-31T14:33:45;99370.88;;;31.00;100.00
36788;BME280;22738;45.560;9.434;2023-07-31T14:40:26;99356.59;;;30.83;100.00
36788;BME280;22738;45.560;9.434;2023-07-31T14:47:08;99354.31;;;31.69;100.00
36788;BME280;22738;45.560;9.434;2023-07-31T14:53:49;99348.94;;;32.24;100.00
36788;BME280;22738;45.560;9.434;2023-07-31T15:00:30;99338.78;;;31.88;100.00
36788;BME280;22738;45.560;9.434;2023-07-31T15:07:11;99339.22;;;32.18;100.00
36788;BME280;22738;45.560;9.434;2023-07-31T15:13:54;99336.81;;;32.44;100.00
36788;BME280;22738;45.560;9.434;2023-07-31T15:20:36;99326.41;;;31.87;100.00
36788;BME280;22738;45.560;9.434;2023-07-31T15:27:19;99327.06;;;31.94;100.00
36788;BME280;22738;45.560;9.434;2023-07-31T15:34:01;99312.16;;;31.82;100.00
36788;BME280;22738;45.560;9.434;2023-07-31T15:40:43;99310.31;;;31.65;100.00
36788;BME280;22738;45.560;9.434;2023-07-31T15:47:26;99304.19;;;32.08;100.00
36788;BME280;22738;45.560;9.434;2023-07-31T15:54:07;99285.38;;;31.65;100.00
36788;BME280;22738;45.560;9.434;2023-07-31T16:00:48;99280.50;;;32.00;100.00
36788;BME280;22738;45.560;9.434;2023-07-31T16:07:30;99270.78;;;31.56;100.00
36788;BME280;22738;45.560;9.434;2023-07-31T16:14:11;99263.22;;;31.36;100.00
36788;BME280;22738;45.560;9.434;2023-07-31T16:20:52;99261.16;;;31.60;100.00
36788;BME280;22738;45.560;9.434;2023-07-31T16:27:36;99259.94;;;31.46;100.00
36788;BME280;22738;45.560;9.434;2023-07-31T16:34:17;99256.19;;;31.30;100.00
36788;BME280;22738;45.560;9.434;2023-07-31T16:40:58;99259.41;;;31.49;100.00
36788;BME280;22738;45.560;9.434;2023-07-31T16:47:39;99265.56;;;31.33;100.00
36788;BME280;22738;45.560;9.434;2023-07-31T16:54:20;99252.78;;;31.01;100.00
36788;BME280;22738;45.560;9.434;2023-07-31T17:01:02;99262.69;;;31.01;100.00
36788;BME280;22738;45.560;9.434;2023-07-31T17:07:44;99267.06;;;31.24;100.00
36788;BME280;22738;45.560;9.434;2023-07-31T17:14:25;99266.91;;;30.97;100.00
36788;BME280;22738;45.560;9.434;2023-07-31T17:21:06;99273.88;;;31.15;100.00
36788;BME280;22738;45.560;9.434;2023-07-31T17:27:48;99273.03;;;30.81;100.00
36788;BME280;22738;45.560;9.434;2023-07-31T17:34:32;99281.03;;;30.92;100.00
36788;BME280;22738;45.560;9.434;2023-07-31T17:41:13;99287.59;;;30.57;100.00
36788;BME280;22738;45.560;9.434;2023-07-31T17:47:54;99273.38;;;30.00;100.00
36788;BME280;22738;45.560;9.434;2023-07-31T17:54:35;99294.09;;;29.81;100.00
36788;BME280;22738;45.560;9.434;2023-07-31T18:01:17;99296.63;;;29.64;100.00
36788;BME280;22738;45.560;9.434;2023-07-31T18:07:58;99290.38;;;29.47;100.00
36788;BME280;22738;45.560;9.434;2023-07-31T18:14:39;99288.75;;;29.35;100.00
36788;BME280;22738;45.560;9.434;2023-07-31T18:21:21;99295.19;;;29.04;100.00
36788;BME280;22738;45.560;9.434;2023-07-31T18:28:02;99303.66;;;29.01;100.00
36788;BME280;22738;45.560;9.434;2023-07-31T18:34:43;99308.47;;;28.81;100.00
36788;BME280;22738;45.560;9.434;2023-07-31T18:41:25;99309.50;;;28.68;100.00
36788;BME280;22738;45.560;9.434;2023-07-31T18:48:07;99319.50;;;28.55;100.00
36788;BME280;22738;45.560;9.434;2023-07-31T18:54:49;99321.28;;;28.43;100.00
36788;BME280;22738;45.560;9.434;2023-07-31T19:01:30;99328.81;;;28.34;100.00
36788;BME280;22738;45.560;9.434;2023-07-31T19:08:11;99325.09;;;28.17;100.00
36788;BME280;22738;45.560;9.434;2023-07-31T19:14:52;99329.72;;;27.85;100.00
36788;BME280;22738;45.560;9.434;2023-07-31T19:21:33;99327.56;;;27.58;100.00
36788;BME280;22738;45.560;9.434;2023-07-31T19:28:14;99335.88;;;27.43;100.00
36788;BME280;22738;45.560;9.434;2023-07-31T19:34:56;99327.00;;;27.24;100.00
36788;BME280;22738;45.560;9.434;2023-07-31T19:41:37;99341.00;;;27.13;100.00
36788;BME280;22738;45.560;9.434;2023-07-31T19:48:20;99335.38;;;27.03;100.00
36788;BME280;22738;45.560;9.434;2023-07-31T19:55:06;99321.75;;;26.86;100.00
36788;BME280;22738;45.560;9.434;2023-07-31T20:01:47;99311.81;;;26.69;100.00
36788;BME280;22738;45.560;9.434;2023-07-31T20:08:28;99303.03;;;26.68;100.00
36788;BME280;22738;45.560;9.434;2023-07-31T20:15:21;99294.59;;;26.71;100.00
36788;BME280;22738;45.560;9.434;2023-07-31T20:22:02;99290.91;;;26.79;100.00
36788;BME280;22738;45.560;9.434;2023-07-31T20:28:44;99293.78;;;26.77;100.00
36788;BME280;22738;45.560;9.434;2023-07-31T20:35:30;99283.34;;;26.69;100.00
36788;BME280;22738;45.560;9.434;2023-07-31T20:42:11;99284.91;;;26.52;100.00
36788;BME280;22738;45.560;9.434;2023-07-31T20:48:55;99286.53;;;26.53;100.00
36788;BME280;22738;45.560;9.434;2023-07-31T20:55:39;99280.84;;;26.50;100.00
36788;BME280;22738;45.560;9.434;2023-07-31T21:02:22;99274.97;;;26.41;100.00
36788;BME280;22738;45.560;9.434;2023-07-31T21:09:03;99281.56;;;26.32;100.00
36788;BME280;22738;45.560;9.434;2023-07-31T21:15:44;99282.25;;;26.14;100.00
36788;BME280;22738;45.560;9.434;2023-07-31T21:22:26;99285.72;;;26.02;100.00
36788;BME280;22738;45.560;9.434;2023-07-31T21:29:08;99270.44;;;25.91;100.00
36788;BME280;22738;45.560;9.434;2023-07-31T21:35:49;99271.28;;;25.91;100.00
36788;BME280;22738;45.560;9.434;2023-07-31T21:42:30;99278.00;;;25.94;100.00
36788;BME280;22738;45.560;9.434;2023-07-31T21:49:11;99273.94;;;25.85;100.00
36788;BME280;22738;45.560;9.434;2023-07-31T21:55:52;99258.22;;;25.77;100.00
36788;BME280;22738;45.560;9.434;2023-07-31T22:02:33;99258.69;;;25.61;100.00
36788;BME280;22738;45.560;9.434;2023-07-31T22:09:14;99257.06;;;25.60;100.00
36788;BME280;22738;45.560;9.434;2023-07-31T22:15:55;99244.81;;;25.59;100.00
36788;BME280;22738;45.560;9.434;2023-07-31T22:22:36;99242.78;;;25.41;100.00
36788;BME280;22738;45.560;9.434;2023-07-31T22:29:17;99236.03;;;25.38;100.00
36788;BME280;22738;45.560;9.434;2023-07-31T22:36:01;99222.78;;;25.32;100.00
36788;BME280;22738;45.560;9.434;2023-07-31T22:42:43;99229.72;;;25.33;100.00
36788;BME280;22738;45.560;9.434;2023-07-31T22:49:26;99221.75;;;25.39;100.00
36788;BME280;22738;45.560;9.434;2023-07-31T22:56:07;99223.97;;;25.42;100.00
36788;BME280;22738;45.560;9.434;2023-07-31T23:02:48;99208.31;;;25.28;100.00
36788;BME280;22738;45.560;9.434;2023-07-31T23:09:30;99210.13;;;25.34;100.00
36788;BME280;22738;45.560;9.434;2023-07-31T23:16:11;99193.56;;;25.52;100.00
36788;BME280;22738;45.560;9.434;2023-07-31T23:22:52;99191.75;;;25.45;100.00
36788;BME280;22738;45.560;9.434;2023-07-31T23:29:33;99175.06;;;25.25;100.00
36788;BME280;22738;45.560;9.434;2023-07-31T23:36:16;99162.22;;;25.16;100.00
36788;BME280;22738;45.560;9.434;2023-07-31T23:42:59;99161.59;;;25.20;100.00
36788;BME280;22738;45.560;9.434;2023-07-31T23:49:41;99154.66;;;25.13;100.00
36788;BME280;22738;45.560;9.434;2023-07-31T23:56:22;99159.34;;;25.17;100.00
